Time;durP1;ratioP1;P1;durP2;ratioP2;P2;SDS_P1;SDS_P2;PMS_P1;PMS_P2;Temp;Humidity;BMP_temperature;BMP_pressure;BME280_temperature;BME280_humidity;BME280_pressure;Samples;Min_cycle;Max_cycle;Signal;HPM_P1;HPM_P2
2021/03/01 00:50:38;;;;;;;;;;;;;;;;;;;;;
2021/03/01 00:53:06;;;;;;;22.63;15.50;;;3.20;95.70;;;;;;4937465;29;20248;-94
2021/03/01 00:55:36;;;;;;;16.20;12.67;;;3.20;96.00;;;;;;4937245;29;20453;-94
2021/03/01 00:58:03;;;;;;;14.50;12.37;;;3.10;96.30;;;;;;4938102;29;20480;-95
2021/03/01 01:00:38;;;;;;;16.37;13.07;;;3.10;96.60;;;;;;4936803;29;20472;-95
2021/03/01 01:03:10;;;;;;;18.80;14.03;;;3.00;96.90;;;;;;4940476;29;20441;-94
2021/03/01 01:05:38;;;;;;;20.03;13.73;;;3.00;97.00;;;;;;4941148;29;20450;-94
2021/03/01 01:08:06;;;;;;;13.73;12.20;;;3.00;97.00;;;;;;4941064;29;20441;-93
2021/03/01 01:10:34;;;;;;;20.07;13.57;;;3.00;97.30;;;;;;4940864;29;20219;-93
2021/03/01 01:13:04;;;;;;;17.00;12.35;;;3.00;97.50;;;;;;4940091;29;20473;-94
2021/03/01 01:15:44;;;;;;;18.70;13.52;;;2.90;97.50;;;;;;4940838;29;20225;-93
2021/03/01 01:18:13;;;;;;;23.00;14.82;;;2.80;97.90;;;;;;4941156;29;20208;-93
2021/03/01 01:20:45;;;;;;;24.58;16.17;;;2.80;98.10;;;;;;4940718;29;20197;-93
2021/03/01 01:23:18;;;;;;;17.05;13.45;;;2.80;98.20;;;;;;4940795;29;20238;-92
2021/03/01 01:25:47;;;;;;;17.80;14.00;;;2.80;98.40;;;;;;4938826;29;20201;-93
2021/03/01 01:28:14;;;;;;;20.67;13.83;;;2.90;98.50;;;;;;4938940;29;20549;-92
2021/03/01 01:30:52;;;;;;;16.30;13.30;;;2.80;98.50;;;;;;4940285;29;20493;-93
2021/03/01 01:33:28;;;;;;;19.42;12.10;;;2.80;98.70;;;;;;4939579;29;20208;-92
2021/03/01 01:36:11;;;;;;;22.05;13.68;;;2.80;99.00;;;;;;4939467;29;20191;-93
2021/03/01 01:38:38;;;;;;;16.88;13.38;;;2.80;99.00;;;;;;4938511;29;20204;-94
2021/03/01 01:41:10;;;;;;;18.42;13.15;;;2.70;99.10;;;;;;4939879;29;20325;-95
2021/03/01 01:43:46;;;;;;;24.63;14.00;;;2.80;99.40;;;;;;4941350;29;20211;-94
2021/03/01 01:46:20;;;;;;;23.48;14.35;;;2.70;99.40;;;;;;4941059;29;20208;-92
2021/03/01 01:49:02;;;;;;;26.75;15.55;;;2.70;99.60;;;;;;4940339;29;20234;-95
2021/03/01 01:51:42;;;;;;;18.92;13.80;;;2.70;99.90;;;;;;4941064;29;20211;-92
2021/03/01 01:54:15;;;;;;;18.77;13.68;;;2.70;99.90;;;;;;4940575;29;20220;-94
2021/03/01 01:57:08;;;;;;;;;;;;;;;;;;;;;
2021/03/01 01:59:43;;;;;;;21.47;14.73;;;2.70;99.90;;;;;;4940687;29;20187;-95
2021/03/01 02:02:16;;;;;;;19.25;14.88;;;2.70;99.80;;;;;;4940460;29;20467;-93
2021/03/01 02:04:59;;;;;;;17.17;12.32;;;2.60;99.80;;;;;;4940647;29;20190;-92
2021/03/01 02:07:52;;;;;;;18.48;13.30;;;2.60;99.90;;;;;;4940298;29;20192;-93
2021/03/01 02:10:43;;;;;;;20.02;14.25;;;2.60;99.90;;;;;;4940389;29;20196;-94
2021/03/01 02:13:36;;;;;;;19.83;12.65;;;2.60;99.90;;;;;;4940236;29;20190;-94
2021/03/01 02:16:19;;;;;;;18.90;14.50;;;2.60;99.90;;;;;;4940051;29;20215;-93
2021/03/01 02:19:02;;;;;;;22.80;15.07;;;2.50;99.90;;;;;;4940018;29;20192;-93
2021/03/01 02:21:44;;;;;;;23.88;15.50;;;2.40;99.90;;;;;;4938888;29;20508;-94
2021/03/01 02:24:16;;;;;;;18.83;13.38;;;2.50;99.90;;;;;;4941195;29;20187;-92
2021/03/01 02:26:49;;;;;;;20.85;13.75;;;2.40;99.90;;;;;;4943990;29;20187;-94
2021/03/01 02:29:24;;;;;;;21.85;14.55;;;2.30;99.90;;;;;;4943577;29;20229;-94
2021/03/01 02:32:02;;;;;;;27.13;14.23;;;2.20;99.90;;;;;;4944099;29;20223;-93
2021/03/01 02:34:40;;;;;;;25.17;14.13;;;2.20;99.90;;;;;;4943788;29;20188;-93
2021/03/01 02:37:12;;;;;;;25.52;15.10;;;2.20;99.90;;;;;;4944244;29;20205;-93
2021/03/01 02:39:47;;;;;;;23.80;14.80;;;2.30;99.90;;;;;;4944248;29;20202;-92
2021/03/01 02:42:16;;;;;;;21.50;14.40;;;2.30;99.90;;;;;;4944565;29;20238;-94
2021/03/01 02:44:47;;;;;;;22.20;13.52;;;2.30;99.90;;;;;;4944377;29;20251;-92
2021/03/01 02:47:18;;;;;;;22.70;15.35;;;2.30;99.90;;;;;;4944616;29;20202;-93
2021/03/01 02:50:07;;;;;;;31.13;16.85;;;2.20;99.90;;;;;;4943241;29;20222;-93
2021/03/01 02:52:43;;;;;;;51.55;19.00;;;2.20;99.90;;;;;;4942948;29;20222;-92
2021/03/01 02:55:13;;;;;;;45.60;16.67;;;2.20;99.90;;;;;;4943365;29;20196;-94
2021/03/01 02:57:44;;;;;;;28.85;17.13;;;2.20;99.90;;;;;;4943377;29;20205;-93
2021/03/01 03:00:13;;;;;;;42.72;17.77;;;2.20;99.90;;;;;;4943367;29;20191;-94
2021/03/01 03:02:53;;;;;;;41.55;15.00;;;2.10;99.90;;;;;;4943105;29;20211;-92
2021/03/01 03:05:25;;;;;;;24.20;14.68;;;2.10;99.90;;;;;;4942930;29;20210;-93
2021/03/01 03:07:54;;;;;;;24.83;14.18;;;2.10;99.90;;;;;;4942942;29;20254;-94
2021/03/01 03:10:23;;;;;;;24.20;15.85;;;2.00;99.90;;;;;;4942905;29;20203;-92
2021/03/01 03:12:53;;;;;;;19.85;14.32;;;1.90;99.90;;;;;;4942577;29;20180;-92
2021/03/01 03:15:22;;;;;;;22.80;14.88;;;1.90;99.90;;;;;;4943546;29;20215;-92
2021/03/01 03:18:02;;;;;;;18.50;15.07;;;1.90;99.90;;;;;;4943330;29;20187;-92
2021/03/01 03:20:42;;;;;;;23.20;15.40;;;1.90;99.90;;;;;;4942885;29;20194;-92
2021/03/01 03:23:15;;;;;;;28.00;14.35;;;1.90;99.90;;;;;;4943140;29;20270;-91
2021/03/01 03:25:52;;;;;;;18.77;13.75;;;1.90;99.90;;;;;;4942839;29;20250;-92
2021/03/01 03:28:19;;;;;;;17.33;13.27;;;1.90;99.90;;;;;;4942571;29;20234;-93
2021/03/01 03:30:53;;;;;;;22.15;14.68;;;1.90;99.90;;;;;;4941421;29;20226;-93
2021/03/01 03:33:23;;;;;;;22.05;14.60;;;1.90;99.90;;;;;;4942595;29;20194;-93
2021/03/01 03:36:01;;;;;;;19.45;13.60;;;1.90;99.90;;;;;;4941504;29;20286;-93
2021/03/01 03:38:48;;;;;;;20.83;14.65;;;1.90;99.90;;;;;;4942585;29;20191;-92
2021/03/01 03:41:20;;;;;;;18.15;13.75;;;1.80;99.90;;;;;;4942393;29;20236;-90
2021/03/01 03:43:50;;;;;;;22.95;14.02;;;1.80;99.90;;;;;;4942409;29;20188;-93
2021/03/01 03:46:37;;;;;;;25.05;13.88;;;1.70;99.90;;;;;;4942397;29;20207;-93
2021/03/01 03:49:12;;;;;;;22.98;15.60;;;1.70;99.90;;;;;;4942305;29;20229;-92
2021/03/01 03:51:46;;;;;;;19.85;14.55;;;1.60;99.90;;;;;;4941876;29;20231;-92
2021/03/01 03:54:26;;;;;;;23.65;15.20;;;1.60;99.90;;;;;;4942111;29;20182;-92
2021/03/01 03:56:58;;;;;;;18.83;12.48;;;1.60;99.90;;;;;;4942537;29;20201;-92
2021/03/01 03:59:31;;;;;;;25.75;16.40;;;1.60;99.90;;;;;;4942670;28;20190;-94
2021/03/01 04:02:01;;;;;;;21.83;14.57;;;1.60;99.90;;;;;;4942929;29;20219;-91
2021/03/01 04:04:40;;;;;;;25.25;14.68;;;1.60;99.90;;;;;;4943098;29;20221;-94
2021/03/01 04:09:45;;;;;;;22.17;15.40;;;1.60;99.90;;;;;;5151631;23;20225;-93
2021/03/01 04:12:18;;;;;;;23.05;14.98;;;1.70;99.90;;;;;;4927573;29;20244;-93
2021/03/01 04:14:48;;;;;;;22.77;14.70;;;1.70;99.90;;;;;;4923238;29;20199;-93
2021/03/01 04:17:24;;;;;;;19.67;13.60;;;1.70;99.90;;;;;;4960310;23;20214;-92
2021/03/01 04:19:57;;;;;;;19.90;15.32;;;1.60;99.90;;;;;;4962719;29;20238;-93
2021/03/01 04:23:14;;;;;;;18.90;13.85;;;1.60;99.90;;;;;;4962949;29;20194;-93
2021/03/01 04:25:45;;;;;;;24.23;15.18;;;1.60;99.90;;;;;;4962958;29;20235;-93
2021/03/01 04:28:17;;;;;;;23.38;16.05;;;1.50;99.90;;;;;;4962900;29;20206;-93
2021/03/01 04:30:47;;;;;;;24.30;15.82;;;1.50;99.90;;;;;;4962774;29;20174;-92
2021/03/01 04:33:25;;;;;;;23.08;15.60;;;1.40;99.90;;;;;;4962689;29;20174;-92
2021/03/01 04:36:09;;;;;;;24.08;16.42;;;1.40;99.90;;;;;;4962574;29;20178;-92
2021/03/01 04:38:36;;;;;;;22.63;15.30;;;1.30;99.90;;;;;;4961583;28;20197;-94
2021/03/01 04:41:13;;;;;;;24.02;16.33;;;1.30;99.90;;;;;;4961569;28;20230;-92
2021/03/01 04:43:42;;;;;;;23.23;16.20;;;1.20;99.90;;;;;;4960705;28;20197;-94
2021/03/01 06:17:18;;;;;;;24.08;14.95;;;1.10;99.90;;;;;;4929352;29;20255;-94
2021/03/01 06:19:49;;;;;;;23.38;16.73;;;1.10;99.90;;;;;;4929567;29;20209;-92
2021/03/01 06:22:17;;;;;;;27.50;15.35;;;1.00;99.90;;;;;;4923795;29;20203;-92
2021/03/01 06:25:00;;;;;;;20.80;15.70;;;1.10;99.90;;;;;;4925356;29;20332;-92
2021/03/01 06:27:27;;;;;;;29.23;15.23;;;1.10;99.90;;;;;;4905857;29;20212;-90
2021/03/01 06:30:08;;;;;;;18.38;14.35;;;1.10;99.90;;;;;;4907758;29;20227;-92
2021/03/01 06:32:40;;;;;;;24.23;15.65;;;1.20;99.90;;;;;;4908153;29;20255;-92
2021/03/01 06:35:29;;;;;;;22.85;15.18;;;1.30;99.90;;;;;;4908473;29;20243;-92
2021/03/01 06:38:19;;;;;;;20.75;16.45;;;1.30;99.90;;;;;;4905931;29;20754;-93
2021/03/01 06:41:05;;;;;;;21.10;15.60;;;1.30;99.90;;;;;;4904694;29;20299;-94
2021/03/01 06:43:32;;;;;;;26.85;16.60;;;1.30;99.90;;;;;;4905673;29;20270;-92
2021/03/01 06:46:09;;;;;;;23.25;16.10;;;1.40;99.90;;;;;;4908750;29;20239;-91
2021/03/01 06:48:38;;;;;;;24.17;14.70;;;1.40;99.90;;;;;;4911615;29;20239;-92
2021/03/01 06:51:06;;;;;;;24.92;15.77;;;1.40;99.90;;;;;;4906730;29;20216;-93
2021/03/01 06:53:34;;;;;;;22.67;15.82;;;1.40;99.90;;;;;;4903537;29;20231;-92
2021/03/01 06:56:02;;;;;;;22.55;15.38;;;1.40;99.90;;;;;;4903226;29;20694;-92
2021/03/01 06:58:34;;;;;;;29.52;16.70;;;1.50;99.90;;;;;;4905155;29;20200;-92
2021/03/01 07:01:13;;;;;;;30.10;17.55;;;1.40;99.90;;;;;;4918414;29;20195;-93
2021/03/01 07:03:55;;;;;;;25.20;17.13;;;1.50;99.90;;;;;;4912371;29;20214;-91
2021/03/01 07:06:37;;;;;;;23.77;15.98;;;1.50;99.90;;;;;;4905353;29;20298;-91
2021/03/01 07:09:15;;;;;;;25.25;16.75;;;1.50;99.90;;;;;;4918170;29;20302;-92
2021/03/01 07:11:43;;;;;;;28.02;17.88;;;1.60;99.90;;;;;;4913282;29;20242;-91
2021/03/01 07:14:10;;;;;;;28.48;17.08;;;1.70;99.90;;;;;;4908787;29;20286;-92
2021/03/01 07:29:52;;;;;;;27.30;17.85;;;2.00;99.90;;;;;;4942002;27;20223;-95
2021/03/01 07:32:22;;;;;;;27.70;18.27;;;2.10;99.90;;;;;;4932982;29;20262;-92
2021/03/01 07:34:50;;;;;;;25.38;16.17;;;2.20;99.90;;;;;;4933664;29;20235;-92
2021/03/01 07:37:21;;;;;;;24.25;16.33;;;2.20;99.90;;;;;;4941637;29;20187;-94
2021/03/01 07:39:47;;;;;;;25.88;17.83;;;2.30;99.90;;;;;;4941149;29;20210;-93
2021/03/01 07:42:15;;;;;;;29.80;19.45;;;2.40;99.90;;;;;;4932521;29;20207;-91
2021/03/01 07:44:45;;;;;;;29.30;20.13;;;2.40;99.90;;;;;;4927414;29;20231;-92
2021/03/01 07:47:12;;;;;;;32.70;19.80;;;2.40;99.90;;;;;;4926401;29;20247;-92
2021/03/01 07:49:46;;;;;;;30.17;20.13;;;2.50;99.90;;;;;;4933489;29;20233;-93
2021/03/01 07:52:37;;;;;;;33.30;19.40;;;2.50;99.90;;;;;;4938430;29;20309;-92
2021/03/01 07:55:06;;;;;;;33.38;20.65;;;2.60;99.90;;;;;;4940188;29;20227;-92
2021/03/01 07:57:34;;;;;;;34.17;20.33;;;2.70;99.90;;;;;;4943233;29;20214;-95
2021/03/01 08:00:23;;;;;;;33.25;20.42;;;2.80;99.90;;;;;;4968928;23;20253;-92
2021/03/01 08:02:49;;;;;;;34.47;18.15;;;2.90;99.90;;;;;;4961596;28;20188;-92
2021/03/01 08:05:26;;;;;;;31.10;20.02;;;2.90;99.90;;;;;;4953907;29;20238;-91
2021/03/01 08:07:53;;;;;;;31.52;20.13;;;3.00;99.90;;;;;;4950089;29;20204;-93
2021/03/01 08:10:36;;;;;;;34.25;21.20;;;3.10;99.90;;;;;;4949093;29;20212;-92
2021/03/01 08:13:04;;;;;;;27.85;20.05;;;3.20;99.90;;;;;;4952324;29;20289;-92
2021/03/01 08:15:35;;;;;;;35.63;19.92;;;3.40;99.90;;;;;;4946647;29;20243;-92
2021/03/01 08:18:02;;;;;;;34.80;18.80;;;3.70;99.90;;;;;;4950222;29;20307;-92
2021/03/01 08:20:38;;;;;;;27.17;19.27;;;4.00;99.70;;;;;;4948399;29;20492;-92
2021/03/01 08:23:15;;;;;;;25.07;18.80;;;4.20;99.10;;;;;;4946309;29;20520;-92
2021/03/01 08:25:56;;;;;;;37.23;19.40;;;5.50;99.00;;;;;;4943834;29;20572;-93
2021/03/01 08:28:48;;;;;;;26.70;20.80;;;7.20;95.60;;;;;;4947357;29;20461;-93
2021/03/01 08:31:40;;;;;;;35.50;20.90;;;7.60;91.30;;;;;;4944342;29;20450;-92
2021/03/01 08:34:43;;;;;;;31.50;22.57;;;8.80;89.90;;;;;;4955522;28;20445;-94
2021/03/01 08:37:09;;;;;;;24.30;19.93;;;10.90;84.60;;;;;;4947387;29;20477;-93
2021/03/01 08:39:58;;;;;;;28.03;19.37;;;13.60;75.80;;;;;;4947048;29;20481;-93
2021/03/01 08:42:51;;;;;;;24.60;18.40;;;14.30;66.30;;;;;;4947868;29;20463;-93
2021/03/01 08:45:30;;;;;;;20.70;18.13;;;14.40;61.60;;;;;;4957895;28;20463;-93
2021/03/01 08:48:00;;;;;;;22.27;17.77;;;15.00;59.60;;;;;;4958005;28;20454;-93
2021/03/01 08:50:29;;;;;;;22.17;19.80;;;16.10;58.00;;;;;;4950752;29;20459;-93
2021/03/01 08:52:56;;;;;;;22.17;17.97;;;15.90;57.10;;;;;;4956465;28;20488;-93
2021/03/01 08:55:24;;;;;;;18.90;16.93;;;16.20;55.80;;;;;;4957185;28;20541;-93
2021/03/01 08:57:58;;;;;;;22.93;18.47;;;15.50;55.20;;;;;;4948072;29;20460;-93
2021/03/01 09:00:27;;;;;;;17.60;15.47;;;14.80;55.60;;;;;;4953722;29;20516;-92
2021/03/01 09:03:26;;;;;;;19.33;16.17;;;14.80;56.60;;;;;;4946806;29;20456;-93
2021/03/01 09:06:14;;;;;;;15.20;13.77;;;14.90;56.70;;;;;;4944365;29;20477;-93
2021/03/01 09:08:45;;;;;;;16.63;14.13;;;15.70;55.80;;;;;;4944651;29;21011;-93
2021/03/01 09:11:23;;;;;;;16.63;14.70;;;16.60;54.40;;;;;;4947899;29;20960;-93
2021/03/01 09:13:55;;;;;;;17.03;15.20;;;16.40;52.80;;;;;;4952795;29;20492;-94
2021/03/01 09:16:25;;;;;;;16.53;14.83;;;16.40;53.40;;;;;;4950341;29;20478;-94
2021/03/01 09:18:58;;;;;;;17.27;15.50;;;16.60;52.60;;;;;;4946761;29;20445;-94
2021/03/01 09:21:25;;;;;;;16.97;14.57;;;17.10;52.20;;;;;;4945351;29;20450;-93
2021/03/01 09:23:55;;;;;;;19.23;14.83;;;17.10;51.30;;;;;;4951701;29;20493;-92
2021/03/01 09:26:24;;;;;;;16.30;14.60;;;17.30;51.50;;;;;;4949620;29;20492;-93
2021/03/01 09:28:51;;;;;;;14.00;12.60;;;17.80;50.20;;;;;;4946683;29;20512;-92
2021/03/01 09:31:18;;;;;;;15.07;13.50;;;18.60;49.20;;;;;;4950354;29;20453;-93
2021/03/01 09:33:45;;;;;;;13.03;11.83;;;18.60;45.70;;;;;;4951280;29;20430;-93
2021/03/01 09:36:14;;;;;;;13.57;12.27;;;18.20;46.60;;;;;;4955444;28;20481;-93
2021/03/01 09:38:41;;;;;;;13.97;12.67;;;17.70;47.30;;;;;;4950262;29;20453;-93
2021/03/01 09:41:10;;;;;;;16.13;14.60;;;17.10;48.00;;;;;;4955051;29;20488;-93
2021/03/01 09:43:39;;;;;;;15.00;13.10;;;17.20;49.90;;;;;;4949366;29;20814;-95
2021/03/01 09:46:13;;;;;;;15.20;12.20;;;17.60;48.50;;;;;;4948909;29;20505;-93
2021/03/01 09:57:13;;;;;;;11.50;10.40;;;18.70;45.10;;;;;;4951445;29;20441;-94
2021/03/01 09:59:43;;;;;;;12.60;11.07;;;18.60;44.20;;;;;;4956076;28;20445;-94
2021/03/01 10:02:15;;;;;;;12.10;10.80;;;17.80;45.20;;;;;;4955986;28;20458;-94
2021/03/01 10:04:54;;;;;;;11.07;10.03;;;18.50;45.40;;;;;;4951500;29;20526;-93
2021/03/01 10:07:29;;;;;;;12.63;11.50;;;19.50;44.60;;;;;;4960312;28;20484;-94
2021/03/01 10:09:56;;;;;;;12.50;11.40;;;18.10;44.90;;;;;;4956696;28;20525;-94
2021/03/01 10:17:43;;;;;;;12.30;11.00;;;20.80;41.50;;;;;;4940749;29;20477;-87
2021/03/01 10:20:11;;;;;;;12.33;11.10;;;21.90;41.00;;;;;;4942301;29;20450;-84
2021/03/01 10:23:04;;;;;;;13.50;12.20;;;22.20;39.00;;;;;;4943214;29;20450;-84
2021/03/01 10:25:32;;;;;;;13.53;12.33;;;22.70;39.10;;;;;;4942088;29;20483;-84
2021/03/01 13:28:59;;;;;;;4.90;4.50;;;25.20;27.10;;;;;;4992047;28;20465;-85
2021/03/01 13:31:26;;;;;;;5.20;4.80;;;24.60;27.50;;;;;;4994690;28;20513;-85
2021/03/01 13:33:52;;;;;;;5.03;4.63;;;25.50;27.20;;;;;;4992010;28;20489;-84
2021/03/01 13:36:19;;;;;;;4.90;4.50;;;26.80;26.20;;;;;;4991738;28;20447;-84
2021/03/01 13:38:45;;;;;;;4.37;3.97;;;26.20;26.30;;;;;;4991403;28;20462;-85
2021/03/01 13:41:12;;;;;;;4.87;4.37;;;25.80;26.50;;;;;;5001696;28;20460;-84
2021/03/01 13:43:38;;;;;;;6.00;4.70;;;26.10;26.40;;;;;;4996752;28;20468;-85
2021/03/01 13:46:05;;;;;;;4.87;4.47;;;25.30;26.90;;;;;;4995489;28;20816;-85
2021/03/01 13:48:32;;;;;;;4.03;3.73;;;24.40;27.30;;;;;;5005132;28;20489;-85
2021/03/01 13:50:58;;;;;;;4.57;4.17;;;23.40;27.80;;;;;;4996824;28;20498;-84
2021/03/01 13:53:24;;;;;;;6.27;4.67;;;22.90;28.30;;;;;;4994890;28;20475;-85
2021/03/01 14:07:12;;;;;;;5.30;4.80;;;22.10;29.50;;;;;;5033866;23;20501;-91
2021/03/01 14:16:19;;;;;;;4.60;4.20;;;21.10;31.10;;;;;;4935791;28;20444;-90
2021/03/01 14:19:06;;;;;;;4.77;4.30;;;20.50;31.20;;;;;;4979373;28;20490;-91
2021/03/01 14:25:34;;;;;;;5.20;4.70;;;19.90;33.10;;;;;;5013056;23;20482;-90
2021/03/01 14:44:48;;;;;;;6.00;5.23;;;21.50;30.20;;;;;;3253896;26;20490;-94
2021/03/01 14:47:28;;;;;;;5.33;4.83;;;20.40;31.90;;;;;;5034561;28;20904;-92
2021/03/01 14:50:24;;;;;;;5.50;4.87;;;20.10;33.00;;;;;;5034924;28;20467;-92
2021/03/01 14:53:03;;;;;;;5.67;5.17;;;19.60;33.20;;;;;;5037105;28;20482;-92
2021/03/01 14:55:50;;;;;;;6.33;5.73;;;19.20;34.50;;;;;;5039199;28;20952;-93
2021/03/01 14:58:58;;;;;;;5.80;5.30;;;19.60;34.60;;;;;;5034982;28;20521;-93
2021/03/01 15:02:00;;;;;;;7.20;5.63;;;20.30;34.20;;;;;;5045014;23;20562;-93
2021/03/01 15:11:08;;;;;;;5.03;4.53;;;21.00;32.90;;;;;;5014352;28;20443;-93
2021/03/01 15:14:24;;;;;;;4.67;4.27;;;20.50;33.50;;;;;;5008612;28;20449;-95
2021/03/01 15:17:26;;;;;;;5.33;4.93;;;20.00;34.10;;;;;;5008259;28;20442;-93
2021/03/01 15:20:30;;;;;;;5.33;4.83;;;19.90;34.70;;;;;;5009452;28;20482;-93
2021/03/01 15:23:05;;;;;;;6.40;5.80;;;20.10;34.40;;;;;;5004602;28;20488;-94
2021/03/01 15:26:18;;;;;;;4.47;4.07;;;20.00;34.70;;;;;;5008307;28;20453;-93
2021/03/01 15:32:56;;;;;;;5.67;4.97;;;19.70;35.30;;;;;;4953390;28;20400;-93
2021/03/01 15:35:22;;;;;;;5.13;4.57;;;19.70;34.70;;;;;;5020028;23;20483;-90
2021/03/01 15:37:49;;;;;;;5.13;4.60;;;20.10;35.10;;;;;;5006325;28;20420;-89
2021/03/01 15:40:15;;;;;;;4.97;4.50;;;20.30;34.50;;;;;;4997072;28;20490;-89
2021/03/01 15:42:42;;;;;;;6.83;5.10;;;20.60;34.40;;;;;;5005017;28;20639;-87
2021/03/01 15:45:09;;;;;;;7.70;5.60;;;20.50;33.90;;;;;;4999832;28;20478;-87
2021/03/01 15:47:36;;;;;;;5.53;5.03;;;20.30;34.20;;;;;;5002407;28;20439;-89
2021/03/01 16:01:07;;;;;;;5.63;5.13;;;18.70;36.50;;;;;;4779232;26;20506;-91
2021/03/01 16:10:34;;;;;;;5.23;4.70;;;18.80;36.00;;;;;;4969079;28;20452;-92
2021/03/01 16:18:59;;;;;;;4.90;4.33;;;18.50;36.40;;;;;;5135369;23;20518;-90
2021/03/01 16:22:02;;;;;;;6.60;6.00;;;18.50;36.60;;;;;;5002656;28;20466;-92
2021/03/01 16:24:52;;;;;;;4.87;4.47;;;18.30;37.00;;;;;;4983087;28;20514;-92
2021/03/01 16:27:37;;;;;;;5.50;5.00;;;17.90;37.30;;;;;;4999785;28;20449;-90
2021/03/01 16:30:10;;;;;;;7.67;5.43;;;17.40;37.40;;;;;;5009076;28;20467;-91
2021/03/01 16:32:45;;;;;;;6.73;4.43;;;17.00;38.30;;;;;;4995170;28;20428;-91
2021/03/01 16:38:45;;;;;;;7.03;5.17;;;16.00;39.90;;;;;;5003020;28;20487;-92
2021/03/01 16:41:32;;;;;;;4.87;4.20;;;15.70;40.70;;;;;;4999776;28;20512;-91
2021/03/01 18:00:35;;;;;;;9.73;6.70;;;12.50;48.40;;;;;;5042542;23;20561;-90
2021/03/01 18:03:21;;;;;;;9.53;7.27;;;12.40;48.60;;;;;;5007141;28;20206;-90
2021/03/01 18:06:18;;;;;;;9.83;6.47;;;12.40;49.20;;;;;;5006659;28;20476;-88
2021/03/01 18:09:04;;;;;;;8.20;6.90;;;12.40;49.20;;;;;;5005381;28;21004;-89
2021/03/01 18:21:10;;;;;;;9.63;8.03;;;12.30;50.10;;;;;;4941832;28;20428;-90
2021/03/01 18:57:14;;;;;;;11.10;8.23;;;11.30;53.50;;;;;;4976550;28;20489;-91
2021/03/01 18:59:44;;;;;;;14.40;9.40;;;11.30;53.60;;;;;;4993046;28;20573;-90
2021/03/01 19:02:41;;;;;;;13.70;10.67;;;11.30;53.80;;;;;;4978429;28;20455;-89
2021/03/01 19:05:48;;;;;;;12.07;9.40;;;11.30;53.90;;;;;;4949737;28;20508;-91
2021/03/01 19:09:15;;;;;;;;;;;;;;;;;;;;;
2021/03/01 19:16:10;;;;;;;11.83;9.90;;;10.90;54.80;;;;;;4914511;29;20513;-92
2021/03/01 19:26:06;;;;;;;14.57;10.47;;;10.70;55.90;;;;;;4854059;29;20445;-93
2021/03/01 19:35:17;;;;;;;16.10;12.70;;;10.50;56.80;;;;;;4794367;29;20507;-93
2021/03/01 19:37:51;;;;;;;15.10;11.97;;;10.40;57.10;;;;;;4930999;29;20446;-92
2021/03/01 19:40:29;;;;;;;12.40;9.67;;;10.30;57.60;;;;;;4972811;29;20477;-93
2021/03/01 19:43:05;;;;;;;10.20;8.50;;;10.30;58.10;;;;;;4970719;28;20479;-92
2021/03/01 19:45:31;;;;;;;11.17;10.07;;;10.10;58.10;;;;;;4976638;29;20464;-91
2021/03/01 19:47:59;;;;;;;13.73;10.27;;;10.00;58.70;;;;;;4975217;28;20497;-93
2021/03/01 19:50:27;;;;;;;18.63;9.10;;;9.90;59.70;;;;;;4976895;28;20449;-92
2021/03/01 19:52:57;;;;;;;12.90;9.90;;;9.90;59.60;;;;;;4968883;28;20454;-92
2021/03/01 20:14:40;;;;;;;17.03;10.50;;;9.40;63.60;;;;;;4908356;29;20438;-91
2021/03/01 20:20:41;;;;;;;17.80;11.37;;;9.30;63.50;;;;;;4938203;28;20470;-84
2021/03/01 20:23:12;;;;;;;15.03;11.70;;;9.20;63.60;;;;;;4957893;28;20473;-85
2021/03/01 20:25:45;;;;;;;16.50;12.80;;;9.20;64.10;;;;;;4959577;29;20430;-84
2021/03/01 20:28:15;;;;;;;20.57;12.03;;;9.00;65.50;;;;;;4952400;29;20466;-83
2021/03/01 20:30:50;;;;;;;16.50;12.10;;;9.00;66.10;;;;;;4951342;29;20450;-84
2021/03/01 20:33:24;;;;;;;20.47;15.00;;;9.00;66.10;;;;;;4953450;29;20480;-85
2021/03/01 20:41:54;;;;;;;16.63;13.10;;;9.00;66.40;;;;;;4916366;28;20445;-84
2021/03/01 20:44:21;;;;;;;16.83;13.23;;;8.80;66.90;;;;;;4964468;28;20464;-93
2021/03/01 20:46:49;;;;;;;18.43;13.40;;;8.70;67.70;;;;;;4977704;28;20437;-93
2021/03/01 20:49:16;;;;;;;19.37;13.13;;;8.50;68.50;;;;;;4980060;28;20493;-90
2021/03/01 20:51:42;;;;;;;19.10;13.17;;;8.40;69.40;;;;;;4978894;28;20441;-94
2021/03/01 20:56:47;;;;;;;23.93;11.80;;;8.50;69.30;;;;;;5273385;23;20473;-92
